Time;durP1;ratioP1;P1;durP2;ratioP2;P2;SDS_P1;SDS_P2;PMS_P1;PMS_P2;Temp;Humidity;BMP_temperature;BMP_pressure;BME280_temperature;BME280_humidity;BME280_pressure;Samples;Min_cycle;Max_cycle;Signal;HPM_P1;HPM_P2
2021/11/02 00:00:37;;;;;;;7.67;6.07;;;;;;;;;;5101840;28;20459;-82
2021/11/02 00:03:04;;;;;;;6.50;5.40;;;;;;;;;;5101216;28;20826;-81
2021/11/02 00:05:32;;;;;;;8.63;4.97;;;9.80;99.90;;;;;;5102896;28;20436;-82
2021/11/02 00:07:59;;;;;;;7.80;5.57;;;;;;;;;;5100297;28;20419;-81
2021/11/02 00:10:26;;;;;;;6.87;5.40;;;;;;;;;;5100674;28;20940;-81
2021/11/02 00:12:54;;;;;;;8.90;5.90;;;9.80;99.90;;;;;;5100660;28;20548;-82
2021/11/02 00:15:23;;;;;;;8.90;5.97;;;;;;;;;;5101307;28;20472;-81
2021/11/02 00:17:53;;;;;;;8.77;6.23;;;;;;;;;;5101115;28;20535;-82
2021/11/02 00:20:21;;;;;;;10.73;6.50;;;;;;;;;;5102557;28;20459;-82
2021/11/02 00:22:54;;;;;;;6.30;5.27;;;;;;;;;;5101984;28;20452;-83
2021/11/02 00:25:21;;;;;;;7.43;5.83;;;;;;;;;;5101049;28;20428;-80
2021/11/02 00:27:49;;;;;;;6.73;5.07;;;;;;;;;;5101643;28;20448;-80
2021/11/02 00:30:20;;;;;;;8.50;5.70;;;9.90;99.90;;;;;;5100161;28;20471;-81
2021/11/02 00:32:49;;;;;;;10.10;5.97;;;9.80;99.90;;;;;;5100978;28;20842;-81
2021/11/02 00:35:16;;;;;;;8.43;6.33;;;9.80;99.90;;;;;;5101587;28;20452;-82
2021/11/02 00:37:43;;;;;;;8.73;5.50;;;;;;;;;;5100937;28;21013;-82
2021/11/02 00:40:12;;;;;;;8.43;5.63;;;9.80;99.90;;;;;;5101508;28;20548;-81
2021/11/02 00:42:40;;;;;;;7.87;6.00;;;;;;;;;;5170089;22;20490;-83
2021/11/02 00:45:09;;;;;;;9.63;5.77;;;9.80;99.90;;;;;;5131697;28;20409;-82
2021/11/02 00:47:38;;;;;;;7.67;6.17;;;9.70;99.90;;;;;;5131092;28;20488;-80
2021/11/02 00:50:09;;;;;;;10.17;6.93;;;9.70;99.90;;;;;;5132366;28;20965;-82
2021/11/02 00:52:36;;;;;;;10.67;7.10;;;;;;;;;;5133960;28;20834;-83
2021/11/02 00:55:04;;;;;;;10.97;7.00;;;;;;;;;;5131525;28;20439;-82
2021/11/02 00:57:31;;;;;;;16.50;7.73;;;;;;;;;;5128259;28;20494;-81
2021/11/02 00:59:58;;;;;;;8.97;6.40;;;;;;;;;;5122526;28;20443;-80
2021/11/02 01:02:25;;;;;;;11.23;6.80;;;;;;;;;;5121401;28;20520;-80
2021/11/02 01:04:53;;;;;;;8.57;5.70;;;9.70;99.90;;;;;;5126353;28;20439;-80
2021/11/02 01:07:20;;;;;;;12.33;6.47;;;;;;;;;;5133029;28;20441;-80
2021/11/02 01:09:47;;;;;;;8.10;6.27;;;;;;;;;;5136686;28;20439;-81
2021/11/02 01:12:14;;;;;;;6.87;5.87;;;;;;;;;;5135451;28;20463;-81
2021/11/02 01:14:41;;;;;;;10.87;7.17;;;9.60;99.90;;;;;;5135421;28;20431;-80
2021/11/02 01:17:08;;;;;;;8.60;7.63;;;;;;;;;;5134888;28;20459;-80
2021/11/02 01:19:35;;;;;;;11.23;6.50;;;;;;;;;;5133060;28;20413;-80
2021/11/02 01:22:04;;;;;;;9.33;7.30;;;9.70;99.90;;;;;;5127640;28;20466;-80
2021/11/02 01:24:32;;;;;;;15.23;7.00;;;;;;;;;;5125018;28;20443;-81
2021/11/02 01:26:59;;;;;;;7.77;6.43;;;;;;;;;;5123428;28;20444;-80
2021/11/02 01:29:27;;;;;;;7.97;6.17;;;;;;;;;;5123841;28;20447;-81
2021/11/02 01:31:54;;;;;;;10.57;8.00;;;;;;;;;;5123124;28;20535;-81
2021/11/02 01:34:21;;;;;;;9.17;7.60;;;;;;;;;;5122657;28;20794;-82
2021/11/02 01:36:49;;;;;;;9.50;7.43;;;;;;;;;;5121428;28;20439;-82
2021/11/02 01:39:17;;;;;;;18.47;7.07;;;9.60;99.90;;;;;;5121414;28;20442;-81
2021/11/02 01:41:44;;;;;;;10.20;7.13;;;;;;;;;;5120494;28;20536;-80
2021/11/02 01:44:10;;;;;;;9.03;6.67;;;;;;;;;;5122548;28;20794;-81
2021/11/02 01:46:40;;;;;;;8.97;6.60;;;9.70;99.90;;;;;;5122102;28;20953;-81
2021/11/02 01:49:09;;;;;;;14.43;7.80;;;9.60;99.90;;;;;;5127204;28;20476;-81
2021/11/02 01:51:36;;;;;;;7.57;6.03;;;9.60;99.90;;;;;;5129989;28;20463;-81
2021/11/02 01:54:05;;;;;;;8.33;7.00;;;9.60;99.90;;;;;;5123687;28;20446;-82
2021/11/02 01:56:35;;;;;;;9.07;6.80;;;9.70;99.90;;;;;;5122716;28;20450;-81
2021/11/02 01:59:03;;;;;;;7.77;6.13;;;;;;;;;;5122630;28;20886;-81
2021/11/02 02:01:37;;;;;;;10.63;7.07;;;9.50;99.90;;;;;;5121819;28;20474;-81
2021/11/02 02:04:12;;;;;;;15.13;7.47;;;9.60;99.90;;;;;;5123334;28;20456;-81
2021/11/02 02:06:45;;;;;;;8.47;6.47;;;9.60;99.90;;;;;;5122278;28;20423;-81
2021/11/02 02:09:23;;;;;;;7.90;6.77;;;9.70;99.90;;;;;;5122553;28;20430;-80
2021/11/02 02:11:59;;;;;;;9.77;7.30;;;9.60;99.90;;;;;;5122936;28;20438;-81
2021/11/02 02:14:33;;;;;;;9.70;6.40;;;9.70;99.90;;;;;;5122764;28;20400;-79
2021/11/02 02:17:00;;;;;;;7.20;6.40;;;;;;;;;;5121500;28;20434;-82
2021/11/02 02:19:40;;;;;;;10.70;7.40;;;9.60;99.90;;;;;;5121305;28;20442;-81
2021/11/02 02:22:34;;;;;;;8.10;6.50;;;9.60;99.90;;;;;;5120744;28;20833;-81
2021/11/02 02:25:31;;;;;;;12.67;8.97;;;9.60;99.90;;;;;;5121285;28;20522;-81
2021/11/02 02:28:09;;;;;;;8.63;7.77;;;9.60;99.90;;;;;;5122889;28;20459;-81
2021/11/02 02:30:39;;;;;;;9.23;7.67;;;9.60;99.90;;;;;;5122016;28;20921;-80
2021/11/02 02:33:07;;;;;;;13.90;8.90;;;9.50;99.90;;;;;;5120865;28;20546;-81
2021/11/02 02:35:34;;;;;;;11.17;7.80;;;;;;;;;;5120235;28;20492;-81
2021/11/02 02:38:04;;;;;;;9.73;7.50;;;9.60;99.90;;;;;;5121306;28;20479;-81
2021/11/02 02:40:32;;;;;;;8.33;7.03;;;;;;;;;;5121212;28;20446;-81
2021/11/02 02:42:59;;;;;;;13.00;7.80;;;9.50;99.90;;;;;;5122689;28;20469;-81
2021/11/02 02:45:29;;;;;;;7.67;6.57;;;9.70;99.90;;;;;;5121121;28;20438;-81
2021/11/02 02:47:56;;;;;;;10.93;7.40;;;;;;;;;;5122978;28;20428;-80
2021/11/02 02:50:25;;;;;;;9.63;6.90;;;9.60;99.90;;;;;;5125224;28;20841;-81
2021/11/02 02:52:53;;;;;;;8.57;6.83;;;;;;;;;;5126339;28;20441;-81
2021/11/02 02:55:21;;;;;;;11.33;7.67;;;9.50;99.90;;;;;;5125097;28;20426;-81
2021/11/02 02:57:49;;;;;;;7.37;6.17;;;;;;;;;;5124810;28;20485;-81
2021/11/02 03:00:17;;;;;;;7.20;6.50;;;9.50;99.90;;;;;;5125482;28;20964;-81
2021/11/02 03:02:46;;;;;;;9.43;8.10;;;9.60;99.90;;;;;;5125023;28;20782;-81
2021/11/02 03:05:15;;;;;;;7.90;7.10;;;9.50;99.90;;;;;;5124695;28;20945;-79
2021/11/02 03:07:43;;;;;;;11.23;7.77;;;9.60;99.90;;;;;;5123062;28;20474;-80
2021/11/02 03:10:10;;;;;;;9.40;7.30;;;9.60;99.90;;;;;;5127597;28;20629;-78
2021/11/02 03:12:41;;;;;;;10.37;8.33;;;9.60;99.90;;;;;;5132259;28;20547;-78
2021/11/02 03:15:27;;;;;;;13.40;7.50;;;9.50;99.90;;;;;;5130766;28;20526;-78
2021/11/02 03:18:05;;;;;;;10.17;7.03;;;9.60;99.90;;;;;;5131410;28;20496;-78
2021/11/02 03:51:40;;;;;;;11.93;8.37;;;9.50;99.90;;;;;;5108564;28;20437;-80
2021/11/02 03:57:17;;;;;;;14.77;9.03;;;9.50;99.90;;;;;;5057131;28;20385;-80
2021/11/02 04:00:11;;;;;;;13.47;8.10;;;9.60;99.90;;;;;;5056978;28;20438;-80
2021/11/02 05:08:20;;;;;;;15.83;10.40;;;9.60;99.90;;;;;;5050513;28;20887;-78
2021/11/02 05:11:16;;;;;;;13.70;10.73;;;9.60;99.90;;;;;;5050901;28;20440;-79
2021/11/02 05:14:11;;;;;;;12.70;9.30;;;9.50;99.90;;;;;;5050549;28;20797;-79
2021/11/02 05:47:05;;;;;;;14.47;10.83;;;;;;;;;;5049687;28;20376;-77
2021/11/02 05:49:39;;;;;;;21.80;12.10;;;;;;;;;;5049551;28;20465;-77
2021/11/02 05:52:30;;;;;;;16.50;10.40;;;9.60;99.90;;;;;;5049594;28;20835;-78
2021/11/02 05:55:17;;;;;;;19.30;10.63;;;9.60;99.90;;;;;;5049407;28;20409;-77
2021/11/02 05:57:50;;;;;;;15.67;11.90;;;;;;;;;;5048693;28;20462;-78
2021/11/02 06:00:19;;;;;;;16.23;10.90;;;;;;;;;;5035648;28;20495;-78
2021/11/02 06:03:05;;;;;;;16.10;11.63;;;;;;;;;;5036033;28;20466;-78
2021/11/02 06:08:49;;;;;;;17.93;12.70;;;9.60;99.90;;;;;;5011426;28;20513;-78
2021/11/02 06:28:20;;;;;;;18.37;11.97;;;;;;;;;;5035837;28;20402;-77
2021/11/02 06:30:51;;;;;;;44.50;22.90;;;;;;;;;;5038365;28;20441;-77
2021/11/02 06:33:35;;;;;;;19.37;14.53;;;;;;;;;;5035578;28;20924;-77
2021/11/02 06:36:14;;;;;;;20.70;13.23;;;;;;;;;;5036128;28;20413;-78
2021/11/02 06:39:10;;;;;;;18.47;13.17;;;;;;;;;;5035776;28;20492;-77
2021/11/02 06:47:30;;;;;;;17.60;12.07;;;;;;;;;;5025700;28;20777;-78
2021/11/02 06:53:10;;;;;;;19.60;12.53;;;;;;;;;;5028392;28;20458;-78
2021/11/02 07:18:02;;;;;;;16.87;12.20;;;;;;;;;;5029188;28;20959;-78
2021/11/02 07:20:41;;;;;;;19.83;11.00;;;;;;;;;;5034737;28;20473;-78
2021/11/02 07:23:22;;;;;;;16.03;11.97;;;;;;;;;;5034505;28;20416;-78
2021/11/02 07:25:59;;;;;;;18.57;11.60;;;;;;;;;;5036876;28;20511;-79
2021/11/02 07:28:46;;;;;;;18.47;14.07;;;;;;;;;;5037839;28;20521;-78
2021/11/02 08:46:32;;;;;;;17.53;12.17;;;;;;;;;;5033418;28;20406;-78
2021/11/02 08:49:00;;;;;;;19.47;12.93;;;;;;;;;;5033209;28;20466;-77
2021/11/02 08:51:28;;;;;;;19.93;13.00;;;;;;;;;;5033722;28;20461;-78
2021/11/02 08:53:56;;;;;;;19.10;12.40;;;;;;;;;;5035856;28;20454;-79
2021/11/02 08:56:24;;;;;;;20.80;12.77;;;;;;;;;;5034917;28;20541;-78
2021/11/02 08:58:53;;;;;;;18.03;12.70;;;;;;;;;;5034524;28;20490;-78
2021/11/02 09:01:22;;;;;;;17.97;11.90;;;;;;;;;;5034352;28;20458;-78
2021/11/02 09:03:50;;;;;;;18.53;13.23;;;;;;;;;;5033305;28;20485;-78
2021/11/02 09:06:18;;;;;;;19.50;14.30;;;;;;;;;;5034094;28;20504;-79
2021/11/02 09:08:46;;;;;;;19.97;12.87;;;;;;;;;;5035214;28;20442;-77
2021/11/02 09:11:14;;;;;;;21.20;13.07;;;;;;;;;;5036566;28;20852;-79
2021/11/02 09:13:43;;;;;;;19.40;13.73;;;;;;;;;;5034906;28;20450;-78
2021/11/02 09:16:10;;;;;;;21.40;13.50;;;;;;;;;;5034766;28;20471;-78
2021/11/02 09:18:37;;;;;;;23.47;15.70;;;;;;;;;;5033647;28;20577;-78
2021/11/02 09:21:06;;;;;;;24.80;14.90;;;;;;;;;;5034016;28;20596;-78
2021/11/02 09:23:34;;;;;;;29.37;15.67;;;;;;;;;;5033625;28;20475;-78
2021/11/02 09:26:03;;;;;;;30.77;16.63;;;;;;;;;;5033913;28;20446;-78
2021/11/02 09:28:31;;;;;;;26.70;16.27;;;;;;;;;;5033026;28;20434;-77
2021/11/02 09:30:59;;;;;;;28.53;17.33;;;;;;;;;;5032970;28;20520;-78
2021/11/02 09:33:26;;;;;;;30.13;18.27;;;;;;;;;;5033498;28;20442;-78
2021/11/02 09:35:58;;;;;;;33.60;20.13;;;;;;;;;;5037503;28;20476;-78
2021/11/02 09:38:27;;;;;;;31.93;19.87;;;;;;;;;;5037258;28;20466;-78
2021/11/02 09:41:13;;;;;;;28.00;18.17;;;;;;;;;;5036770;28;20532;-78
2021/11/02 09:44:01;;;;;;;30.07;19.33;;;;;;;;;;5036439;28;20891;-78
2021/11/02 09:46:57;;;;;;;27.33;18.57;;;;;;;;;;5036621;28;20434;-78
2021/11/02 09:49:33;;;;;;;30.00;20.20;;;;;;;;;;5036514;28;20466;-77
2021/11/02 09:52:27;;;;;;;36.40;21.40;;;;;;;;;;5037310;28;20443;-78
2021/11/02 09:55:04;;;;;;;35.13;21.20;;;;;;;;;;5001549;28;20473;-78
2021/11/02 09:57:54;;;;;;;31.17;18.67;;;;;;;;;;5036266;28;20441;-77
2021/11/02 10:00:31;;;;;;;27.83;18.80;;;;;;;;;;5035621;28;20527;-78
2021/11/02 10:03:14;;;;;;;30.50;20.47;;;;;;;;;;5034414;28;20426;-78
2021/11/02 10:05:59;;;;;;;30.00;20.00;;;;;;;;;;5036124;28;20453;-78
2021/11/02 10:08:33;;;;;;;25.47;17.90;;;;;;;;;;5039561;28;20451;-77
2021/11/02 10:11:02;;;;;;;24.20;17.47;;;;;;;;;;5041118;28;20552;-77
2021/11/02 10:13:38;;;;;;;24.40;16.27;;;;;;;;;;5041389;28;20817;-77
2021/11/02 10:16:13;;;;;;;22.90;16.97;;;;;;;;;;5038480;28;20480;-77
2021/11/02 10:18:45;;;;;;;24.47;16.77;;;;;;;;;;5039287;28;20498;-77
2021/11/02 10:21:26;;;;;;;19.67;14.30;;;;;;;;;;5040782;28;20438;-77
2021/11/02 10:24:05;;;;;;;41.80;29.10;;;;;;;;;;5038268;28;20501;-78
2021/11/02 10:26:37;;;;;;;26.57;18.20;;;;;;;;;;5037409;28;20422;-77
2021/11/02 10:29:28;;;;;;;29.23;17.60;;;;;;;;;;5040793;28;20484;-78
2021/11/02 10:32:00;;;;;;;29.67;18.20;;;;;;;;;;5037361;28;20422;-78
2021/11/02 10:34:47;;;;;;;30.47;19.70;;;;;;;;;;5037078;28;20538;-77
2021/11/02 10:37:21;;;;;;;24.47;17.40;;;;;;;;;;5038352;28;20431;-78
2021/11/02 10:40:02;;;;;;;24.60;16.47;;;;;;;;;;5039986;28;20560;-77
2021/11/02 10:42:37;;;;;;;21.07;15.70;;;;;;;;;;5037726;28;20432;-77
2021/11/02 10:45:07;;;;;;;25.73;16.03;;;;;;;;;;5035908;28;20450;-77
2021/11/02 10:47:40;;;;;;;21.00;15.90;;;;;;;;;;5037763;28;20473;-77
2021/11/02 10:50:10;;;;;;;18.37;15.57;;;;;;;;;;5036405;28;20466;-77
2021/11/02 10:52:37;;;;;;;22.03;16.90;;;;;;;;;;5036479;28;20504;-77
2021/11/02 10:55:18;;;;;;;24.27;16.70;;;;;;;;;;5036757;28;20453;-77
2021/11/02 10:57:58;;;;;;;23.43;15.87;;;;;;;;;;5036039;28;20470;-78
2021/11/02 11:00:25;;;;;;;20.83;16.10;;;;;;;;;;5036001;28;20520;-79
2021/11/02 11:02:55;;;;;;;23.27;16.50;;;;;;;;;;5036030;28;20482;-79
2021/11/02 11:05:26;;;;;;;30.63;14.47;;;;;;;;;;5036982;28;20447;-79
2021/11/02 11:07:53;;;;;;;16.67;13.33;;;;;;;;;;5037270;28;20488;-78
2021/11/02 11:10:23;;;;;;;13.50;11.80;;;;;;;;;;5042496;28;20468;-77
2021/11/02 11:12:54;;;;;;;13.40;11.47;;;;;;;;;;5054341;28;20422;-77
2021/11/02 11:15:21;;;;;;;12.37;11.07;;;;;;;;;;5055656;28;20431;-78
2021/11/02 11:17:51;;;;;;;18.10;11.80;;;;;;;;;;5055868;28;20457;-78
2021/11/02 11:20:19;;;;;;;11.70;10.13;;;;;;;;;;5037467;28;20518;-78
2021/11/02 11:22:49;;;;;;;14.13;11.30;;;;;;;;;;5037993;28;20480;-78
2021/11/02 11:25:18;;;;;;;17.17;11.53;;;;;;;;;;5039244;28;20551;-78
2021/11/02 11:27:47;;;;;;;20.77;14.87;;;;;;;;;;5036344;28;20913;-78
2021/11/02 11:30:16;;;;;;;17.13;13.13;;;;;;;;;;5034392;28;20473;-77
2021/11/02 11:32:43;;;;;;;14.10;10.87;;;;;;;;;;5034216;28;20489;-78
2021/11/02 11:35:11;;;;;;;21.80;13.10;;;;;;;;;;5034931;28;20446;-77
2021/11/02 11:37:39;;;;;;;11.40;9.43;;;;;;;;;;5034170;28;20446;-77
2021/11/02 11:40:09;;;;;;;12.97;10.80;;;;;;;;;;5034118;28;20470;-77
2021/11/02 11:42:37;;;;;;;13.13;10.00;;;;;;;;;;5033824;28;20902;-77
2021/11/02 11:45:06;;;;;;;10.97;9.40;;;;;;;;;;5033906;28;20851;-77
2021/11/02 11:47:34;;;;;;;14.83;10.60;;;;;;;;;;5034082;28;20478;-77
2021/11/02 11:50:13;;;;;;;13.43;10.17;;;;;;;;;;5033969;28;20466;-77
2021/11/02 11:52:44;;;;;;;10.93;9.93;;;;;;;;;;5034189;28;20462;-77
2021/11/02 11:55:14;;;;;;;11.40;9.47;;;;;;;;;;5034092;28;20422;-78
2021/11/02 11:57:41;;;;;;;13.57;11.67;;;;;;;;;;5034076;28;20474;-77
2021/11/02 12:00:09;;;;;;;12.00;10.80;;;;;;;;;;5034183;28;20505;-77
2021/11/02 12:02:39;;;;;;;12.00;10.77;;;;;;;;;;5034490;28;20446;-79
2021/11/02 12:05:16;;;;;;;13.67;10.40;;;;;;;;;;5037157;28;20504;-79
2021/11/02 12:07:51;;;;;;;14.73;11.43;;;;;;;;;;5035570;28;20801;-78
2021/11/02 12:10:22;;;;;;;18.03;12.50;;;;;;;;;;5035137;28;20470;-78
2021/11/02 12:12:50;;;;;;;17.43;12.07;;;;;;;;;;5035247;28;20429;-78
2021/11/02 12:15:17;;;;;;;12.93;10.90;;;;;;;;;;5035985;28;20490;-78
2021/11/02 12:17:45;;;;;;;12.70;10.67;;;;;;;;;;5035094;28;20541;-79
2021/11/02 12:20:13;;;;;;;15.87;10.93;;;;;;;;;;5036819;28;20490;-79
2021/11/02 12:22:47;;;;;;;10.83;9.77;;;;;;;;;;5041702;28;20481;-80
2021/11/02 12:25:20;;;;;;;13.27;11.50;;;;;;;;;;5040440;28;20434;-78
2021/11/02 12:27:48;;;;;;;15.07;10.40;;;;;;;;;;5039663;28;20426;-78
2021/11/02 12:30:16;;;;;;;15.87;10.50;;;;;;;;;;5038355;28;20452;-79
2021/11/02 12:32:46;;;;;;;10.90;8.87;;;;;;;;;;5038752;28;20473;-78
2021/11/02 12:35:24;;;;;;;13.20;9.30;;;;;;;;;;5039824;28;20496;-79
2021/11/02 12:37:52;;;;;;;11.87;9.60;;;;;;;;;;5039080;28;20421;-79
2021/11/02 12:40:21;;;;;;;14.60;8.90;;;;;;;;;;5040196;28;20477;-79
2021/11/02 12:42:49;;;;;;;10.70;9.50;;;;;;;;;;5040932;28;20447;-79
2021/11/02 12:45:18;;;;;;;14.63;8.73;;;;;;;;;;5040965;28;20473;-79
2021/11/02 12:47:47;;;;;;;10.80;9.20;;;;;;;;;;5039236;28;20454;-80
2021/11/02 12:50:16;;;;;;;9.73;8.47;;;;;;;;;;5039765;28;20512;-78
2021/11/02 12:52:43;;;;;;;12.67;9.00;;;;;;;;;;5038144;28;20446;-79
2021/11/02 12:55:11;;;;;;;11.53;8.03;;;;;;;;;;5039965;28;20502;-79
2021/11/02 12:57:40;;;;;;;9.20;8.27;;;;;;;;;;5037788;28;20457;-78
2021/11/02 13:00:10;;;;;;;13.43;8.53;;;;;;;;;;5037632;28;20533;-79
2021/11/02 13:02:39;;;;;;;13.60;8.83;;;;;;;;;;5042882;28;20443;-79
2021/11/02 13:05:08;;;;;;;13.67;8.00;;;;;;;;;;5037118;28;20450;-78
2021/11/02 13:07:39;;;;;;;11.20;8.50;;;;;;;;;;5036846;28;20449;-78
2021/11/02 13:10:13;;;;;;;13.67;11.00;;;;;;;;;;5040855;28;20516;-78
2021/11/02 13:12:42;;;;;;;10.57;8.33;;;;;;;;;;5041520;28;20400;-78
2021/11/02 13:15:11;;;;;;;10.57;9.00;;;;;;;;;;5041614;28;20421;-78
2021/11/02 13:17:42;;;;;;;10.37;9.27;;;;;;;;;;5039890;28;20457;-79
2021/11/02 13:20:10;;;;;;;8.70;7.80;;;;;;;;;;5040141;28;20453;-78
2021/11/02 13:22:37;;;;;;;11.87;9.10;;;;;;;;;;5039895;28;20474;-78
2021/11/02 13:25:05;;;;;;;12.53;8.60;;;;;;;;;;5040720;28;20454;-79
2021/11/02 13:27:33;;;;;;;18.27;9.63;;;;;;;;;;5040674;28;20508;-79
2021/11/02 13:30:15;;;;;;;9.40;8.47;;;;;;;;;;5039758;28;20544;-79
2021/11/02 13:32:54;;;;;;;15.90;8.67;;;;;;;;;;5038683;28;20880;-78
2021/11/02 13:35:37;;;;;;;34.67;10.20;;;;;;;;;;5038983;28;20975;-79
2021/11/02 13:38:19;;;;;;;12.03;8.57;;;;;;;;;;5042203;28;20467;-79
2021/11/02 13:40:46;;;;;;;11.07;8.67;;;;;;;;;;5053412;28;20450;-79
2021/11/02 13:43:13;;;;;;;13.63;8.80;;;;;;;;;;5054625;28;20473;-78
2021/11/02 13:45:40;;;;;;;11.47;9.07;;;;;;;;;;5051141;28;20447;-78
2021/11/02 13:48:08;;;;;;;10.30;9.00;;;;;;;;;;5048789;28;20447;-78
2021/11/02 13:50:35;;;;;;;9.30;8.20;;;;;;;;;;5041906;28;20463;-78
2021/11/02 13:53:02;;;;;;;11.13;8.93;;;;;;;;;;5039388;28;20576;-78
2021/11/02 13:55:29;;;;;;;10.00;8.90;;;;;;;;;;5039908;28;20453;-78
2021/11/02 13:57:57;;;;;;;14.20;8.87;;;;;;;;;;5038475;28;20530;-78
2021/11/02 14:00:24;;;;;;;19.13;10.10;;;;;;;;;;5037518;28;20498;-78
2021/11/02 14:02:52;;;;;;;18.73;10.27;;;;;;;;;;5038090;28;20489;-78
2021/11/02 14:05:21;;;;;;;19.97;9.90;;;;;;;;;;5038194;28;20488;-78
2021/11/02 14:07:48;;;;;;;13.80;8.07;;;;;;;;;;5038112;28;20481;-79
2021/11/02 14:10:15;;;;;;;8.37;6.60;;;;;;;;;;5038049;28;20489;-78
2021/11/02 14:12:45;;;;;;;10.10;6.60;;;;;;;;;;5037142;28;20941;-78
2021/11/02 14:15:18;;;;;;;7.93;5.77;;;;;;;;;;5037538;28;20447;-79
2021/11/02 14:17:46;;;;;;;14.73;6.90;;;;;;;;;;5037713;28;20454;-78
2021/11/02 14:20:15;;;;;;;12.60;6.67;;;;;;;;;;5037064;28;20490;-78
2021/11/02 14:22:45;;;;;;;9.43;7.20;;;;;;;;;;5037984;28;20884;-78
2021/11/02 14:25:12;;;;;;;12.00;7.13;;;;;;;;;;5038705;28;20450;-79
2021/11/02 14:27:42;;;;;;;10.60;7.50;;;;;;;;;;5037561;28;20866;-78
2021/11/02 14:30:09;;;;;;;10.60;8.00;;;;;;;;;;5037074;28;20497;-78
2021/11/02 14:32:52;;;;;;;11.20;8.73;;;;;;;;;;5037140;28;20470;-79
2021/11/02 14:35:38;;;;;;;15.87;8.30;;;;;;;;;;5037936;28;20457;-78
2021/11/02 14:38:07;;;;;;;11.97;8.50;;;;;;;;;;5037709;28;20468;-79
2021/11/02 14:40:35;;;;;;;13.30;9.23;;;;;;;;;;5036591;28;20482;-79
2021/11/02 14:43:21;;;;;;;12.80;9.33;;;;;;;;;;5037338;28;20790;-78
2021/11/02 14:45:49;;;;;;;9.10;8.03;;;;;;;;;;5037281;28;20841;-78
2021/11/02 14:48:29;;;;;;;12.33;8.70;;;;;;;;;;5037932;28;20485;-78
2021/11/02 14:50:57;;;;;;;9.00;7.73;;;;;;;;;;5036952;28;21022;-79
2021/11/02 14:53:34;;;;;;;12.13;10.07;;;;;;;;;;5037381;28;20446;-79
2021/11/02 14:56:02;;;;;;;9.27;7.27;;;;;;;;;;5037486;28;20802;-78
2021/11/02 14:58:42;;;;;;;14.90;8.27;;;;;;;;;;5037144;28;20477;-79
2021/11/02 15:01:11;;;;;;;11.40;9.93;;;;;;;;;;5041606;28;20469;-78
2021/11/02 15:03:38;;;;;;;8.40;7.60;;;;;;;;;;5037591;28;20785;-79
2021/11/02 15:06:05;;;;;;;16.03;9.87;;;;;;;;;;5037367;28;20472;-78
2021/11/02 15:08:33;;;;;;;12.50;9.40;;;;;;;;;;5038417;28;20439;-79
2021/11/02 15:11:03;;;;;;;22.53;11.30;;;;;;;;;;5036427;28;20465;-79
2021/11/02 15:13:30;;;;;;;12.13;9.37;;;;;;;;;;5037466;28;20449;-78
2021/11/02 15:15:57;;;;;;;13.50;9.00;;;;;;;;;;5036367;28;20442;-78
2021/11/02 15:18:25;;;;;;;15.67;8.50;;;;;;;;;;5035308;28;20450;-78
2021/11/02 15:21:01;;;;;;;18.57;9.23;;;;;;;;;;5035862;28;20482;-79
2021/11/02 15:23:36;;;;;;;12.47;7.80;;;;;;;;;;5036204;28;20441;-79
2021/11/02 15:26:05;;;;;;;20.50;12.13;;;;;;;;;;5036562;28;20435;-78
2021/11/02 15:28:39;;;;;;;9.17;8.20;;;;;;;;;;5036412;28;20443;-79
2021/11/02 15:31:06;;;;;;;9.03;7.23;;;;;;;;;;5034904;28;20908;-78
2021/11/02 15:33:34;;;;;;;10.70;8.90;;;;;;;;;;5035862;28;20454;-78
2021/11/02 15:36:12;;;;;;;15.10;11.27;;;;;;;;;;5037376;28;20814;-78
2021/11/02 15:38:39;;;;;;;12.10;10.03;;;;;;;;;;5036866;28;20474;-78
2021/11/02 15:41:23;;;;;;;13.50;11.07;;;;;;;;;;5038981;28;20478;-79
2021/11/02 15:43:55;;;;;;;19.00;12.40;;;;;;;;;;5037472;28;20446;-78
2021/11/02 15:46:24;;;;;;;14.07;11.33;;;;;;;;;;5038168;28;20454;-79
2021/11/02 15:48:52;;;;;;;15.30;11.30;;;;;;;;;;5057144;28;20502;-78
2021/11/02 15:51:19;;;;;;;12.60;10.10;;;;;;;;;;5053789;28;20443;-78
2021/11/02 15:53:46;;;;;;;17.10;10.27;;;;;;;;;;5054724;28;20454;-78
2021/11/02 15:56:13;;;;;;;13.30;11.00;;;;;;;;;;5057674;28;20417;-77
2021/11/02 15:58:41;;;;;;;12.87;11.50;;;;;;;;;;5058789;28;20457;-78
2021/11/02 16:01:09;;;;;;;13.70;11.00;;;;;;;;;;5058835;28;20470;-77
2021/11/02 16:03:38;;;;;;;17.50;10.43;;;;;;;;;;5045251;28;20481;-79
2021/11/02 16:06:06;;;;;;;23.97;17.30;;;;;;;;;;5040335;28;20454;-78
2021/11/02 16:08:33;;;;;;;18.60;16.03;;;;;;;;;;5040293;28;20508;-79
2021/11/02 16:11:05;;;;;;;24.73;15.03;;;;;;;;;;5039042;28;20512;-79
2021/11/02 16:13:32;;;;;;;21.97;16.37;;;;;;;;;;5036884;28;20967;-78
2021/11/02 16:16:01;;;;;;;20.03;15.50;;;;;;;;;;5040417;28;20450;-78
2021/11/02 16:18:28;;;;;;;15.60;12.47;;;;;;;;;;5039721;28;20446;-78
2021/11/02 16:20:58;;;;;;;19.57;13.10;;;;;;;;;;5040793;28;20486;-79
2021/11/02 16:23:26;;;;;;;21.17;13.00;;;;;;;;;;5037084;28;20504;-79
2021/11/02 16:25:55;;;;;;;22.03;13.60;;;;;;;;;;5037476;28;20470;-78
2021/11/02 16:28:23;;;;;;;21.17;13.67;;;;;;;;;;5037802;28;20455;-78
2021/11/02 16:30:51;;;;;;;14.40;12.90;;;;;;;;;;5041787;28;20894;-79
2021/11/02 16:33:19;;;;;;;16.40;14.30;;;;;;;;;;5037130;28;20504;-79
2021/11/02 16:35:47;;;;;;;17.53;12.27;;;;;;;;;;5037496;28;20949;-78
2021/11/02 16:38:20;;;;;;;20.83;12.20;;;;;;;;;;5036562;28;20869;-80
2021/11/02 16:40:47;;;;;;;17.90;13.43;;;;;;;;;;5037398;28;20881;-79
2021/11/02 16:43:15;;;;;;;18.90;13.80;;;;;;;;;;5035327;28;20794;-79
2021/11/02 16:45:49;;;;;;;15.67;12.77;;;;;;;;;;5035849;28;20450;-78
2021/11/02 16:48:16;;;;;;;24.50;14.10;;;;;;;;;;5036238;28;20462;-78
2021/11/02 16:50:44;;;;;;;22.73;15.47;;;;;;;;;;5034333;28;20449;-80
2021/11/02 16:53:17;;;;;;;14.90;13.03;;;;;;;;;;5038565;28;20425;-79
2021/11/02 16:55:45;;;;;;;21.90;14.90;;;;;;;;;;5039222;28;20823;-79
2021/11/02 16:58:27;;;;;;;18.23;13.47;;;;;;;;;;5034923;28;20454;-79
2021/11/02 17:01:09;;;;;;;20.83;15.90;;;;;;;;;;5077780;22;20603;-80
2021/11/02 17:03:37;;;;;;;41.47;21.63;;;;;;;;;;5062573;28;20418;-81
2021/11/02 17:06:11;;;;;;;24.20;17.67;;;;;;;;;;5061400;28;20408;-81
2021/11/02 17:08:38;;;;;;;24.30;16.13;;;;;;;;;;5060868;28;20528;-80
2021/11/02 17:11:06;;;;;;;25.07;15.30;;;;;;;;;;5062168;28;20492;-81
2021/11/02 17:13:35;;;;;;;20.37;14.23;;;;;;;;;;5061639;28;20515;-82
2021/11/02 17:16:04;;;;;;;19.53;13.77;;;;;;;;;;5064209;28;20491;-81
2021/11/02 17:18:45;;;;;;;25.50;15.73;;;;;;;;;;5068557;28;20511;-80
2021/11/02 17:21:14;;;;;;;16.03;13.83;;;;;;;;;;5070318;28;20459;-81
2021/11/02 17:23:42;;;;;;;17.50;15.60;;;;;;;;;;5071566;28;20452;-81
2021/11/02 17:26:10;;;;;;;22.50;14.40;;;;;;;;;;5076363;28;20452;-82
2021/11/02 17:28:38;;;;;;;19.43;15.43;;;;;;;;;;5076653;28;20433;-80
2021/11/02 17:31:06;;;;;;;21.80;15.60;;;;;;;;;;5065302;28;20457;-81
2021/11/02 17:33:33;;;;;;;20.63;16.02;;;;;;;;;;5073806;28;20503;-81
2021/11/02 17:36:01;;;;;;;26.10;16.70;;;;;;;;;;5077587;28;20229;-81
2021/11/02 17:38:29;;;;;;;20.97;15.30;;;;;;;;;;5071622;28;20442;-81
2021/11/02 17:40:56;;;;;;;28.97;18.13;;;;;;;;;;5061140;28;20482;-80
2021/11/02 17:43:23;;;;;;;20.97;16.57;;;;;;;;;;5060990;28;20424;-82
2021/11/02 17:45:50;;;;;;;23.70;16.80;;;;;;;;;;5060380;28;20449;-81
2021/11/02 17:48:18;;;;;;;28.20;17.30;;;;;;;;;;5060960;28;20446;-81
2021/11/02 17:50:45;;;;;;;28.07;17.87;;;;;;;;;;5060581;28;20504;-81
2021/11/02 17:53:12;;;;;;;28.27;16.40;;;;;;;;;;5060548;28;20453;-81
2021/11/02 17:55:41;;;;;;;35.43;26.73;;;;;;;;;;5062854;28;20477;-81
2021/11/02 17:58:08;;;;;;;18.73;15.33;;;;;;;;;;5064399;28;20857;-81
2021/11/02 18:00:35;;;;;;;21.23;16.43;;;;;;;;;;5063752;28;20485;-82
2021/11/02 18:03:02;;;;;;;28.83;18.03;;;;;;;;;;5063947;28;20500;-82
2021/11/02 18:05:30;;;;;;;22.73;16.87;;;;;;;;;;5064050;28;20464;-83
2021/11/02 18:07:57;;;;;;;25.00;18.83;;;;;;;;;;5064168;28;20445;-80
2021/11/02 18:10:25;;;;;;;25.80;18.87;;;;;;;;;;5062811;28;20469;-84
2021/11/02 18:12:57;;;;;;;21.17;17.90;;;;;;;;;;5062669;28;20525;-83
2021/11/02 18:15:24;;;;;;;28.60;19.80;;;;;;;;;;5062246;28;20853;-82
2021/11/02 18:17:52;;;;;;;24.53;17.30;;;;;;;;;;5062258;28;20548;-83
2021/11/02 18:20:20;;;;;;;26.30;19.07;;;;;;;;;;5066649;28;20489;-82
2021/11/02 18:22:48;;;;;;;21.63;17.40;;;;;;;;;;5063341;28;20824;-83
2021/11/02 18:25:17;;;;;;;27.40;19.27;;;;;;;;;;5061980;28;20424;-81
2021/11/02 18:27:44;;;;;;;22.47;17.93;;;;;;;;;;5061843;28;20468;-82
2021/11/02 18:30:14;;;;;;;26.60;19.10;;;;;;;;;;5060986;28;20488;-83
2021/11/02 18:32:42;;;;;;;25.53;17.73;;;;;;;;;;5062392;28;20469;-82
2021/11/02 18:35:10;;;;;;;24.00;18.23;;;;;;;;;;5064898;28;20436;-82
2021/11/02 18:37:37;;;;;;;24.80;17.27;;;;;;;;;;5065124;28;20474;-84
2021/11/02 18:40:10;;;;;;;25.85;19.77;;;;;;;;;;5065690;28;20482;-83
2021/11/02 18:42:37;;;;;;;26.73;18.42;;;;;;;;;;5062582;28;20440;-84
2021/11/02 18:45:04;;;;;;;25.80;18.97;;;;;;;;;;5064259;28;20245;-82
2021/11/02 18:47:33;;;;;;;20.93;17.10;;;;;;;;;;5061710;28;20427;-83